Time;durP1;ratioP1;P1;durP2;ratioP2;P2;SDS_P1;SDS_P2;PMS_P1;PMS_P2;Temp;Humidity;BMP_temperature;BMP_pressure;BME280_temperature;BME280_humidity;BME280_pressure;Samples;Min_cycle;Max_cycle;Signal;HPM_P1;HPM_P2
2021/09/12 00:01:26;;;;;;;5.50;3.10;;;;;;;25.12;42.46;100858.50;4411998;32;20044;-67
2021/09/12 00:03:52;;;;;;;6.87;3.30;;;;;;;24.84;43.22;100857.16;4412783;32;20026;-67
2021/09/12 00:06:19;;;;;;;6.75;3.08;;;;;;;25.02;42.75;100856.50;4414607;32;20041;-67
2021/09/12 00:08:45;;;;;;;4.50;3.03;;;;;;;24.94;42.97;100862.06;4413518;32;20419;-67
2021/09/12 00:11:10;;;;;;;4.75;3.12;;;;;;;24.48;43.64;100861.34;4414059;32;20092;-67
2021/09/12 00:13:36;;;;;;;3.90;2.67;;;;;;;24.55;43.45;100861.56;4412325;32;20022;-67
2021/09/12 00:16:02;;;;;;;6.60;2.42;;;;;;;24.73;42.92;100866.66;4408617;32;20068;-67
2021/09/12 00:18:27;;;;;;;3.60;2.53;;;;;;;24.79;42.74;100869.53;4413501;32;20061;-67
2021/09/12 00:20:53;;;;;;;5.87;2.72;;;;;;;24.84;42.48;100871.56;4412700;32;20124;-67
2021/09/12 00:23:19;;;;;;;3.60;2.60;;;;;;;24.92;42.31;100861.03;4413437;32;20483;-67
2021/09/12 00:25:44;;;;;;;2.40;2.20;;;;;;;25.10;42.07;100869.03;4412438;32;20173;-67
2021/09/12 00:28:11;;;;;;;3.67;2.50;;;;;;;25.22;41.75;100873.38;4413337;32;20042;-67
2021/09/12 00:30:36;;;;;;;4.10;2.58;;;;;;;25.21;41.89;100871.78;4411597;32;20124;-67
2021/09/12 00:33:02;;;;;;;4.65;2.92;;;;;;;25.19;41.94;100874.44;4411079;32;20095;-67
2021/09/12 00:35:27;;;;;;;5.85;3.00;;;;;;;25.24;41.92;100871.50;4412745;32;20440;-67
2021/09/12 00:37:53;;;;;;;12.93;3.00;;;;;;;25.38;41.63;100870.34;4413383;32;20403;-67
2021/09/12 00:40:21;;;;;;;4.70;3.10;;;;;;;25.42;41.77;100875.03;4412972;32;20034;-67
2021/09/12 00:42:47;;;;;;;4.00;3.05;;;;;;;25.60;41.35;100877.19;4413713;32;20082;-67
2021/09/12 00:45:13;;;;;;;4.43;2.60;;;;;;;25.43;41.68;100873.72;4412438;32;20072;-67
2021/09/12 00:47:39;;;;;;;3.55;2.83;;;;;;;25.54;41.54;100876.47;4410607;32;20099;-67
2021/09/12 00:50:06;;;;;;;7.20;1.92;;;;;;;25.48;41.36;100875.75;4412594;32;20054;-67
2021/09/12 00:52:34;;;;;;;2.42;2.22;;;;;;;25.20;41.90;100873.12;4412396;32;20034;-67
2021/09/12 00:55:01;;;;;;;2.87;1.90;;;;;;;25.57;41.17;100875.41;4413647;32;20119;-67
2021/09/12 00:57:27;;;;;;;4.18;2.70;;;;;;;25.64;41.09;100871.94;4414533;32;20076;-67
2021/09/12 00:59:54;;;;;;;5.43;2.50;;;;;;;25.66;40.82;100883.69;4413203;32;20078;-67
2021/09/12 01:02:20;;;;;;;3.50;2.40;;;;;;;25.65;40.90;100882.94;4411629;32;20453;-67
2021/09/12 01:04:46;;;;;;;2.50;2.05;;;;;;;25.48;40.90;100876.53;4413025;32;20091;-67
2021/09/12 01:07:13;;;;;;;2.55;2.12;;;;;;;25.65;40.70;100877.16;4413405;32;20423;-67
2021/09/12 01:09:40;;;;;;;3.92;1.90;;;;;;;25.45;40.66;100873.94;4414118;32;20126;-67
2021/09/12 01:12:07;;;;;;;2.67;1.90;;;;;;;25.31;40.86;100876.69;4412376;32;20406;-67
2021/09/12 01:14:33;;;;;;;3.33;1.67;;;;;;;25.05;41.09;100875.59;4412171;32;20018;-67
2021/09/12 01:17:01;;;;;;;1.67;1.50;;;;;;;25.27;40.72;100879.06;4413760;32;20082;-67
2021/09/12 01:19:29;;;;;;;3.97;1.83;;;;;;;25.32;40.31;100872.50;4412736;32;20560;-67
2021/09/12 01:21:56;;;;;;;3.25;2.00;;;;;;;25.04;41.07;100880.56;4411841;32;20331;-67
2021/09/12 01:24:23;;;;;;;2.10;1.67;;;;;;;24.90;41.37;100887.50;4413953;32;20858;-67
2021/09/12 01:26:49;;;;;;;2.90;1.67;;;;;;;24.84;41.39;100886.75;4411110;32;20166;-67
2021/09/12 01:29:15;;;;;;;2.33;1.60;;;;;;;24.90;41.30;100901.09;4411975;32;20184;-67
2021/09/12 01:31:40;;;;;;;3.37;1.80;;;;;;;25.01;41.03;100895.28;4413239;32;20115;-67
2021/09/12 01:34:07;;;;;;;4.55;1.70;;;;;;;24.86;41.42;100897.72;4411977;32;20166;-67
2021/09/12 01:36:33;;;;;;;2.50;1.65;;;;;;;24.89;41.30;100899.53;4411244;32;20075;-67
2021/09/12 01:38:58;;;;;;;2.55;1.75;;;;;;;24.86;41.23;100901.41;4413331;32;20187;-67
2021/09/12 01:41:24;;;;;;;3.92;1.87;;;;;;;24.92;41.21;100896.38;4413081;32;20034;-67
2021/09/12 01:43:53;;;;;;;4.70;1.90;;;;;;;24.65;41.83;100893.69;4413300;32;20129;-67
2021/09/12 01:46:20;;;;;;;3.60;1.98;;;;;;;25.00;41.27;100885.03;4413503;32;20116;-67
2021/09/12 01:48:47;;;;;;;2.40;1.87;;;;;;;24.74;41.70;100876.09;4410539;32;20470;-67
2021/09/12 01:51:13;;;;;;;3.05;1.52;;;;;;;24.98;41.17;100887.69;4412599;32;20103;-67
2021/09/12 01:53:39;;;;;;;5.10;1.87;;;;;;;24.67;41.54;100885.31;4413511;32;20128;-67
2021/09/12 01:56:05;;;;;;;2.65;1.50;;;;;;;24.84;41.39;100883.09;4415588;32;20088;-67
2021/09/12 01:58:31;;;;;;;3.47;1.80;;;;;;;24.93;41.18;100888.50;4415138;32;20060;-67
2021/09/12 02:00:57;;;;;;;3.67;2.10;;;;;;;24.72;41.51;100888.16;4414188;32;20081;-67
2021/09/12 02:03:23;;;;;;;3.75;1.58;;;;;;;24.72;41.67;100888.16;4409495;32;20127;-67
2021/09/12 02:05:49;;;;;;;3.05;1.70;;;;;;;24.72;41.69;100887.34;4415989;32;20057;-67
2021/09/12 02:08:15;;;;;;;3.15;1.73;;;;;;;24.59;41.86;100887.94;4415238;32;20030;-67
2021/09/12 02:10:42;;;;;;;1.50;1.33;;;;;;;24.48;42.04;100884.34;4415796;32;20445;-67
2021/09/12 02:13:09;;;;;;;2.22;1.50;;;;;;;24.72;41.92;100891.03;4414447;32;20153;-67
2021/09/12 02:15:34;;;;;;;3.37;1.60;;;;;;;24.61;42.04;100881.66;4412095;32;20073;-67
2021/09/12 02:18:00;;;;;;;3.22;1.80;;;;;;;24.69;41.76;100889.22;4414751;32;20077;-67
2021/09/12 02:20:26;;;;;;;6.78;1.92;;;;;;;24.89;41.31;100885.94;4416676;32;20058;-67
2021/09/12 02:22:52;;;;;;;2.55;1.70;;;;;;;24.85;41.48;100882.53;4413667;32;20115;-67
2021/09/12 02:25:18;;;;;;;4.15;1.70;;;;;;;25.09;41.09;100891.25;4413582;32;20498;-67
2021/09/12 02:27:44;;;;;;;3.05;1.80;;;;;;;25.01;41.25;100886.62;4415463;32;20088;-67
2021/09/12 02:30:10;;;;;;;4.20;1.90;;;;;;;25.25;40.68;100896.09;4415396;32;20406;-67
2021/09/12 02:32:36;;;;;;;4.90;2.03;;;;;;;25.41;40.52;100900.19;4413191;32;20065;-67
2021/09/12 02:35:02;;;;;;;3.67;2.00;;;;;;;25.08;41.10;100898.34;4413553;32;20401;-67
2021/09/12 02:37:28;;;;;;;2.58;1.80;;;;;;;25.27;40.68;100896.34;4414792;32;20038;-67
2021/09/12 02:39:53;;;;;;;1.95;1.62;;;;;;;25.18;40.96;100893.81;4413327;32;20111;-67
2021/09/12 02:42:19;;;;;;;4.18;1.83;;;;;;;25.18;40.89;100884.37;4416739;32;20438;-67
2021/09/12 02:44:45;;;;;;;4.00;1.70;;;;;;;25.00;41.28;100885.03;4415037;32;20154;-67
2021/09/12 02:47:11;;;;;;;6.53;2.03;;;;;;;24.95;41.29;100901.03;4416359;32;20619;-67
2021/09/12 02:49:36;;;;;;;4.70;2.97;;;;;;;24.96;41.42;100902.63;4415344;32;20093;-67
2021/09/12 02:52:02;;;;;;;5.70;1.80;;;;;;;24.88;41.57;100901.63;4412598;32;20073;-67
2021/09/12 02:54:28;;;;;;;3.53;1.60;;;;;;;24.95;41.42;100903.94;4413340;32;20440;-67
2021/09/12 02:56:54;;;;;;;2.70;1.75;;;;;;;24.79;41.79;100904.84;4413770;32;20427;-67
2021/09/12 02:59:20;;;;;;;4.18;1.87;;;;;;;24.98;41.40;100899.97;4412838;32;20079;-67
2021/09/12 03:01:45;;;;;;;4.37;2.00;;;;;;;24.92;41.34;100898.47;4412017;32;20375;-67
2021/09/12 03:04:11;;;;;;;2.33;1.73;;;;;;;24.99;41.45;100892.94;4412127;32;20517;-67
2021/09/12 03:06:37;;;;;;;6.50;1.90;;;;;;;24.67;42.00;100888.94;4414882;32;20027;-67
2021/09/12 03:09:03;;;;;;;2.80;1.83;;;;;;;24.86;41.67;100883.34;4413015;32;20071;-67
2021/09/12 03:11:31;;;;;;;4.28;2.20;;;;;;;24.92;41.42;100898.47;4412684;32;20070;-67
2021/09/12 03:13:56;;;;;;;3.78;1.90;;;;;;;25.07;41.03;100896.78;4413093;32;20381;-67
2021/09/12 03:16:23;;;;;;;3.22;1.92;;;;;;;25.09;41.09;100897.03;4413739;32;20038;-67
2021/09/12 03:18:51;;;;;;;5.43;2.00;;;;;;;24.99;41.15;100900.78;4414950;32;20069;-67
2021/09/12 03:21:18;;;;;;;8.00;2.05;;;;;;;25.07;40.85;100888.13;4413599;32;20078;-67
2021/09/12 03:23:43;;;;;;;2.55;1.80;;;;;;;25.05;40.62;100881.34;4413039;32;20103;-67
2021/09/12 03:26:09;;;;;;;2.83;1.98;;;;;;;24.65;41.37;100887.94;4412566;32;20482;-67
2021/09/12 03:28:35;;;;;;;4.03;1.85;;;;;;;24.70;41.23;100896.50;4414132;32;20101;-67
2021/09/12 03:31:01;;;;;;;4.62;1.90;;;;;;;24.33;42.03;100890.41;4412757;32;20165;-67
2021/09/12 03:33:27;;;;;;;4.95;2.10;;;;;;;24.66;41.34;100898.13;4413750;32;20086;-67
2021/09/12 03:35:52;;;;;;;2.25;1.85;;;;;;;24.42;41.59;100900.88;4413534;32;20069;-67
2021/09/12 03:38:18;;;;;;;4.57;1.92;;;;;;;24.69;41.32;100902.81;4412892;32;20130;-67
2021/09/12 03:40:44;;;;;;;4.07;2.00;;;;;;;24.78;41.24;100902.50;4414999;32;20194;-67
2021/09/12 03:43:09;;;;;;;4.45;1.95;;;;;;;24.67;41.21;100906.22;4412721;32;20051;-67
2021/09/12 03:45:36;;;;;;;7.03;2.35;;;;;;;24.59;41.51;100902.31;4410986;32;20191;-67
2021/09/12 03:48:02;;;;;;;2.78;1.90;;;;;;;24.84;41.04;100906.91;4414222;32;20489;-67
2021/09/12 03:50:28;;;;;;;2.50;1.87;;;;;;;24.76;41.20;100908.00;4413445;32;20148;-67
2021/09/12 03:52:54;;;;;;;3.62;1.90;;;;;;;24.43;41.67;100899.53;4411899;32;20342;-67
2021/09/12 03:55:20;;;;;;;2.97;1.73;;;;;;;24.64;41.50;100900.72;4413572;32;20022;-67
2021/09/12 03:57:46;;;;;;;6.03;2.47;;;;;;;24.37;41.79;100890.94;4412984;32;20060;-67
2021/09/12 04:00:12;;;;;;;4.18;1.80;;;;;;;24.42;41.63;100898.75;4414327;32;20684;-67
2021/09/12 04:02:38;;;;;;;7.90;2.10;;;;;;;24.20;42.37;100893.09;4412660;32;20073;-67
2021/09/12 04:05:04;;;;;;;6.10;2.15;;;;;;;24.23;42.33;100897.00;4412134;32;20407;-67
2021/09/12 04:07:30;;;;;;;3.78;1.90;;;;;;;24.23;42.17;100903.56;4411367;32;20060;-67
2021/09/12 04:09:56;;;;;;;3.20;2.10;;;;;;;24.38;41.85;100897.47;4414301;32;20074;-67
2021/09/12 04:12:21;;;;;;;7.35;1.92;;;;;;;24.32;41.68;100905.34;4413057;32;20528;-67
2021/09/12 04:14:47;;;;;;;2.08;1.83;;;;;;;24.39;41.65;100908.44;4413277;32;20026;-67
2021/09/12 04:17:13;;;;;;;4.57;2.03;;;;;;;24.42;41.54;100904.50;4412442;32;20042;-67
2021/09/12 04:19:38;;;;;;;2.97;1.90;;;;;;;24.46;41.63;100909.97;4412969;32;20069;-67
2021/09/12 04:22:04;;;;;;;5.35;2.00;;;;;;;24.53;41.47;100910.22;4412709;32;20072;-67
2021/09/12 04:24:30;;;;;;;3.67;1.98;;;;;;;24.76;40.93;100908.00;4411958;32;20093;-67
2021/09/12 04:26:56;;;;;;;2.70;1.92;;;;;;;24.88;40.72;100910.28;4412653;32;20072;-67
2021/09/12 04:29:22;;;;;;;3.55;1.70;;;;;;;24.95;40.50;100911.81;4412454;32;20108;-67
2021/09/12 04:31:49;;;;;;;4.80;1.75;;;;;;;24.65;40.85;100905.19;4409443;32;20065;-66
2021/09/12 04:34:15;;;;;;;2.72;1.83;;;;;;;24.81;40.66;100907.97;4411822;32;20042;-66
2021/09/12 04:36:41;;;;;;;6.62;1.85;;;;;;;24.76;40.59;100900.12;4410035;32;20070;-66
2021/09/12 04:39:06;;;;;;;3.40;1.80;;;;;;;24.87;40.38;100905.84;4412247;32;20100;-66
2021/09/12 04:41:32;;;;;;;2.85;1.75;;;;;;;24.73;40.47;100904.09;4412995;32;20100;-66
2021/09/12 04:43:58;;;;;;;2.35;1.55;;;;;;;24.93;40.16;100903.69;4410864;32;20089;-66
2021/09/12 04:46:24;;;;;;;2.42;1.42;;;;;;;25.01;39.81;100904.66;4410921;32;20079;-66
2021/09/12 04:48:50;;;;;;;2.22;1.77;;;;;;;25.05;39.56;100910.16;4412183;32;20068;-66
2021/09/12 04:51:15;;;;;;;6.00;1.50;;;;;;;25.06;39.59;100909.62;4411716;32;20097;-66
2021/09/12 04:53:41;;;;;;;5.10;1.87;;;;;;;25.06;39.34;100914.59;4411483;32;20069;-66
2021/09/12 04:56:07;;;;;;;3.65;1.75;;;;;;;24.86;39.67;100915.00;4411269;32;20053;-66
2021/09/12 04:58:33;;;;;;;4.57;1.83;;;;;;;24.91;39.68;100914.97;4406702;32;20060;-66
2021/09/12 05:00:58;;;;;;;5.62;1.80;;;;;;;24.78;39.70;100911.91;4411979;32;20127;-67
2021/09/12 05:03:24;;;;;;;2.80;1.60;;;;;;;24.70;40.02;100913.78;4409922;32;20078;-66
2021/09/12 05:05:50;;;;;;;2.83;1.75;;;;;;;24.73;39.94;100914.84;4413129;32;20037;-66
2021/09/12 05:08:15;;;;;;;3.15;1.58;;;;;;;24.74;39.96;100913.50;4407287;32;20107;-66
2021/09/12 05:10:41;;;;;;;3.17;1.65;;;;;;;24.68;40.06;100909.88;4413824;32;20054;-67
2021/09/12 05:13:07;;;;;;;3.08;1.60;;;;;;;24.61;40.30;100916.94;4409619;32;20064;-67
2021/09/12 05:15:32;;;;;;;2.50;1.62;;;;;;;24.59;40.27;100919.59;4406935;32;20104;-67
2021/09/12 05:17:58;;;;;;;3.22;1.98;;;;;;;24.40;40.54;100915.78;4411896;32;20124;-67
2021/09/12 05:20:25;;;;;;;4.28;2.05;;;;;;;24.37;40.59;100916.84;4413065;32;20493;-67
2021/09/12 05:22:50;;;;;;;3.75;1.80;;;;;;;24.46;40.52;100916.53;4410325;32;20034;-67
2021/09/12 05:25:16;;;;;;;4.85;1.80;;;;;;;24.54;40.25;100913.88;4412919;32;21078;-67
2021/09/12 05:27:42;;;;;;;6.03;1.95;;;;;;;24.52;40.42;100919.38;4411036;32;20038;-67
2021/09/12 05:30:09;;;;;;;2.97;1.77;;;;;;;24.45;40.44;100914.19;4414361;32;21232;-67
2021/09/12 05:32:35;;;;;;;2.87;1.77;;;;;;;24.44;40.57;100912.59;4415189;32;20034;-67
2021/09/12 05:35:01;;;;;;;5.35;2.22;;;;;;;24.35;40.64;100913.69;4414032;32;20077;-67
2021/09/12 05:37:27;;;;;;;4.93;1.92;;;;;;;24.46;40.47;100912.88;4414433;32;20070;-67
2021/09/12 05:39:53;;;;;;;9.70;1.70;;;;;;;24.43;40.47;100913.94;4414488;32;20038;-67
2021/09/12 05:42:18;;;;;;;3.10;1.80;;;;;;;24.44;40.24;100909.72;4414521;32;20203;-67
2021/09/12 05:44:44;;;;;;;5.37;1.75;;;;;;;24.47;40.44;100912.34;4415381;32;20076;-67
2021/09/12 05:47:10;;;;;;;1.62;1.50;;;;;;;24.59;40.16;100913.84;4414277;32;20074;-67
2021/09/12 05:49:36;;;;;;;4.00;1.60;;;;;;;24.61;40.14;100916.19;4415229;32;20049;-67
2021/09/12 05:52:02;;;;;;;2.00;1.70;;;;;;;24.45;40.52;100919.94;4414033;32;20414;-67
2021/09/12 05:54:28;;;;;;;4.30;1.75;;;;;;;24.59;40.31;100918.81;4415685;32;20374;-67
2021/09/12 05:56:53;;;;;;;2.37;1.52;;;;;;;24.54;40.21;100917.53;4416570;32;20033;-67
2021/09/12 05:59:19;;;;;;;4.32;2.08;;;;;;;24.65;40.00;100928.22;4414362;32;20081;-67
2021/09/12 06:01:44;;;;;;;2.95;2.30;;;;;;;24.61;40.11;100931.34;4414545;32;20077;-67
2021/09/12 06:04:10;;;;;;;4.20;2.20;;;;;;;24.65;40.12;100925.34;4414714;32;20077;-67
2021/09/12 06:06:36;;;;;;;3.08;1.77;;;;;;;24.63;40.28;100930.81;4412692;32;20068;-67
2021/09/12 06:09:02;;;;;;;3.10;1.70;;;;;;;24.72;40.17;100927.66;4413811;32;20420;-67
2021/09/12 06:11:28;;;;;;;11.35;2.58;;;;;;;24.84;40.03;100937.78;4414496;32;20068;-67
2021/09/12 06:13:54;;;;;;;2.62;1.60;;;;;;;24.86;39.87;100938.84;4413322;32;20065;-66
2021/09/12 06:16:19;;;;;;;3.75;1.87;;;;;;;24.94;39.53;100951.31;4415521;32;20042;-66
2021/09/12 06:18:45;;;;;;;5.90;2.20;;;;;;;24.94;39.74;100951.31;4413704;32;20206;-67
2021/09/12 06:21:11;;;;;;;3.70;2.37;;;;;;;25.04;39.71;100940.28;4415616;32;20062;-67
2021/09/12 06:23:36;;;;;;;5.30;2.08;;;;;;;24.96;39.94;100945.81;4414068;32;20029;-67
2021/09/12 06:26:03;;;;;;;3.67;2.10;;;;;;;25.13;39.54;100945.72;4414907;32;20034;-66
2021/09/12 06:28:28;;;;;;;3.00;1.70;;;;;;;25.23;39.44;100949.81;4413804;32;20085;-66
2021/09/12 06:30:55;;;;;;;1.98;1.60;;;;;;;25.01;39.59;100947.88;4413956;32;20082;-67
2021/09/12 06:33:20;;;;;;;4.75;2.75;;;;;;;25.17;39.56;100949.88;4411601;32;20115;-67
2021/09/12 06:35:46;;;;;;;5.18;1.58;;;;;;;25.27;39.40;100956.06;4413765;32;21462;-67
2021/09/12 06:38:12;;;;;;;3.45;1.70;;;;;;;25.47;39.13;100954.88;4412929;32;20045;-67
2021/09/12 06:40:39;;;;;;;6.28;2.00;;;;;;;25.40;39.13;100967.75;4414217;32;20193;-67
2021/09/12 06:43:04;;;;;;;4.37;1.80;;;;;;;25.53;38.75;100961.38;4412934;32;20030;-67
2021/09/12 06:45:30;;;;;;;3.80;1.90;;;;;;;25.40;39.05;100955.47;4415371;32;20097;-67
2021/09/12 06:47:57;;;;;;;5.70;2.03;;;;;;;25.69;38.69;100957.56;4408699;32;20038;-67
2021/09/12 06:50:24;;;;;;;3.83;2.10;;;;;;;25.65;38.90;100959.97;4413737;32;20447;-67
2021/09/12 06:52:50;;;;;;;5.18;1.80;;;;;;;25.90;38.62;100970.19;4411884;32;20069;-66
2021/09/12 06:55:16;;;;;;;4.62;1.87;;;;;;;25.97;38.45;100975.38;4413815;32;20098;-66
2021/09/12 06:57:42;;;;;;;2.90;1.92;;;;;;;26.05;38.14;100971.34;4412468;32;20144;-66
2021/09/12 07:00:11;;;;;;;5.87;2.00;;;;;;;26.32;37.92;100972.37;4412892;32;20073;-66
2021/09/12 07:02:38;;;;;;;6.45;2.08;;;;;;;26.36;37.78;100978.63;4413329;32;20068;-66
2021/09/12 07:05:06;;;;;;;3.10;1.50;;;;;;;26.62;37.29;100970.97;4412592;32;20177;-66
2021/09/12 07:07:31;;;;;;;3.75;1.73;;;;;;;26.68;37.06;100976.66;4413292;32;20478;-66
2021/09/12 07:09:57;;;;;;;2.45;1.45;;;;;;;26.49;37.26;100970.84;4413839;32;20093;-66
2021/09/12 07:12:24;;;;;;;1.62;1.30;;;;;;;26.75;36.68;100976.06;4412106;32;20034;-68
2021/09/12 07:14:50;;;;;;;5.68;1.48;;;;;;;26.97;36.12;100975.75;4412988;32;20068;-68
2021/09/12 07:17:16;;;;;;;3.12;1.77;;;;;;;27.04;36.06;100972.22;4414225;32;20056;-66
2021/09/12 07:19:45;;;;;;;4.12;1.23;;;;;;;26.93;36.25;100973.16;4414990;32;20422;-67
2021/09/12 07:22:10;;;;;;;4.28;1.55;;;;;;;26.88;35.78;100981.91;4411775;32;20088;-67
2021/09/12 07:24:39;;;;;;;3.00;1.25;;;;;;;27.22;35.42;100983.75;4411814;32;20033;-67
2021/09/12 07:27:05;;;;;;;3.80;1.55;;;;;;;27.15;35.38;100983.59;4409827;32;20425;-67
2021/09/12 07:29:32;;;;;;;3.85;1.10;;;;;;;27.55;34.78;100984.56;4413439;32;20325;-67
2021/09/12 07:31:59;;;;;;;3.58;1.40;;;;;;;27.44;34.36;100988.44;4412562;32;20686;-67
2021/09/12 07:34:25;;;;;;;2.53;0.98;;;;;;;27.82;33.95;100992.75;4412648;32;20095;-67
2021/09/12 07:36:51;;;;;;;4.47;1.08;;;;;;;27.96;33.61;100997.28;4413300;32;20460;-66
2021/09/12 07:39:16;;;;;;;2.10;0.93;;;;;;;27.70;33.82;100988.50;4411538;32;20114;-68
2021/09/12 07:41:43;;;;;;;1.27;0.68;;;;;;;27.78;33.68;100998.09;4413234;32;20450;-66
2021/09/12 07:44:08;;;;;;;1.08;0.70;;;;;;;28.04;33.35;100998.16;4412123;32;20086;-66
2021/09/12 07:46:34;;;;;;;4.37;1.10;;;;;;;28.12;33.28;101001.19;4412542;32;20073;-67
2021/09/12 07:49:00;;;;;;;1.35;0.80;;;;;;;28.20;33.11;100997.09;4412611;32;20452;-66
2021/09/12 07:51:25;;;;;;;4.95;1.25;;;;;;;28.15;33.00;101003.75;4411709;32;20525;-67
2021/09/12 07:53:51;;;;;;;2.70;1.25;;;;;;;28.19;33.08;101001.31;4412011;32;20102;-66
2021/09/12 07:56:17;;;;;;;2.97;1.12;;;;;;;28.28;32.86;101009.53;4413118;32;20084;-66
2021/09/12 07:58:43;;;;;;;3.47;1.20;;;;;;;28.25;32.85;100996.19;4415318;32;20034;-67
2021/09/12 08:01:10;;;;;;;6.40;1.08;;;;;;;28.36;32.71;101007.56;4411045;32;20033;-67
2021/09/12 08:03:35;;;;;;;3.17;1.00;;;;;;;28.34;32.72;101000.75;4411741;32;20094;-67
2021/09/12 08:06:01;;;;;;;1.52;0.90;;;;;;;28.38;32.69;101007.00;4413845;32;20021;-67
2021/09/12 08:08:27;;;;;;;1.87;1.00;;;;;;;28.43;32.40;100998.19;4413581;32;20133;-67
2021/09/12 08:10:52;;;;;;;4.18;1.37;;;;;;;28.51;32.14;101001.22;4412625;32;20075;-67
2021/09/12 08:13:18;;;;;;;0.98;0.77;;;;;;;28.56;31.87;100991.66;4410348;32;20197;-67
2021/09/12 08:15:44;;;;;;;3.37;1.25;;;;;;;28.73;31.90;101001.53;4413112;32;20177;-67
2021/09/12 08:18:10;;;;;;;2.45;0.80;;;;;;;28.94;31.33;100990.81;4409840;32;20041;-66
2021/09/12 08:20:36;;;;;;;1.00;0.60;;;;;;;29.07;31.07;100995.00;4411458;32;20482;-67
2021/09/12 08:23:02;;;;;;;2.60;2.22;;;;;;;29.31;30.67;101001.28;4411305;32;20507;-67
2021/09/12 08:25:27;;;;;;;2.42;0.93;;;;;;;29.36;30.16;101002.50;4412629;32;20512;-67
2021/09/12 08:27:53;;;;;;;2.03;0.82;;;;;;;29.59;29.79;100991.91;4411256;32;20069;-67
2021/09/12 08:30:19;;;;;;;3.67;0.70;;;;;;;29.52;29.64;101010.81;4412652;32;20123;-67
2021/09/12 08:32:44;;;;;;;1.10;0.88;;;;;;;29.58;29.68;101001.94;4410354;32;20061;-67
2021/09/12 08:35:10;;;;;;;2.37;0.62;;;;;;;29.46;29.47;101001.47;4411910;32;20104;-67
2021/09/12 08:37:36;;;;;;;1.50;0.88;;;;;;;29.48;30.07;101003.78;4412454;32;20065;-67
2021/09/12 08:40:05;;;;;;;2.05;0.80;;;;;;;29.55;30.03;101003.09;4412083;32;20104;-67
2021/09/12 08:42:31;;;;;;;3.62;0.90;;;;;;;29.84;29.86;101004.72;4412344;32;20090;-67
2021/09/12 08:44:58;;;;;;;3.50;0.85;;;;;;;29.99;29.71;101014.34;4411462;32;20415;-68
2021/09/12 08:47:26;;;;;;;1.45;0.70;;;;;;;29.70;28.91;101014.88;4412765;32;20042;-67
2021/09/12 08:49:52;;;;;;;1.77;0.70;;;;;;;30.39;28.20;101017.75;4412743;32;20434;-68
2021/09/12 08:52:18;;;;;;;1.77;0.75;;;;;;;30.47;27.42;101042.59;4410379;32;20077;-68
2021/09/12 08:54:44;;;;;;;3.50;0.55;;;;;;;30.86;26.94;101037.84;4409445;32;20069;-68
2021/09/12 08:57:10;;;;;;;1.23;0.70;;;;;;;31.31;26.32;101038.81;4411190;32;20113;-68
2021/09/12 08:59:36;;;;;;;4.50;0.70;;;;;;;31.57;25.99;101044.28;4413964;32;20077;-68
2021/09/12 09:02:05;;;;;;;1.15;0.60;;;;;;;31.25;26.15;101046.91;4410399;32;20074;-68
2021/09/12 09:04:33;;;;;;;1.48;0.70;;;;;;;31.80;25.42;101059.69;4412789;32;20089;-68
2021/09/12 09:07:02;;;;;;;3.78;0.60;;;;;;;31.94;25.01;101057.41;4415661;32;20085;-68
2021/09/12 09:12:37;;;;;;;2.75;1.08;;;;;;;32.99;24.28;101065.25;3976649;32;15147126;-67
2021/09/12 09:15:05;;;;;;;2.62;0.95;;;;;;;32.99;24.28;101065.25;4431866;32;20048;-67
2021/09/12 09:17:41;;;;;;;1.33;0.50;;;;;;;32.48;24.60;101062.62;4432358;32;20130;-67
2021/09/12 09:20:09;;;;;;;3.85;0.82;;;;;;;32.44;24.59;101062.25;4433726;32;20095;-67
2021/09/12 09:22:38;;;;;;;1.17;0.90;;;;;;;32.36;24.58;101059.34;4429371;32;20033;-67
2021/09/12 09:25:10;;;;;;;3.40;0.80;;;;;;;32.18;24.64;101066.31;4433105;32;20083;-68
2021/09/12 09:33:26;;;;;;;3.80;0.60;;;;;;;32.36;24.50;101060.06;3990367;32;15024638;-67
2021/09/12 09:35:57;;;;;;;1.33;0.55;;;;;;;32.37;24.48;101066.72;4448681;32;20041;-67
2021/09/12 09:38:26;;;;;;;1.25;0.73;;;;;;;31.87;25.14;101061.84;4448680;32;20025;-67
2021/09/12 09:46:34;;;;;;;0.88;0.50;;;;;;;32.81;23.16;101067.22;3984398;32;15023449;-67
2021/09/12 09:49:20;;;;;;;3.78;0.85;;;;;;;32.81;23.16;101067.22;4434640;32;20069;-67
2021/09/12 09:51:48;;;;;;;2.10;0.90;;;;;;;32.46;23.34;101063.22;4434324;32;20554;-67
2021/09/12 09:54:15;;;;;;;1.30;0.55;;;;;;;32.74;22.84;101068.03;4435634;32;20074;-67
2021/09/12 09:56:44;;;;;;;2.10;0.50;;;;;;;32.38;22.74;101058.78;4435378;32;20105;-67
2021/09/12 09:59:12;;;;;;;2.55;0.52;;;;;;;32.30;22.68;101073.31;4435688;32;20380;-67
2021/09/12 10:01:39;;;;;;;1.67;0.60;;;;;;;31.89;22.66;101067.09;4437074;32;20347;-67
2021/09/12 10:04:05;;;;;;;4.18;0.75;;;;;;;32.10;22.75;101074.28;4432359;32;20148;-67
2021/09/12 10:06:30;;;;;;;1.50;0.55;;;;;;;31.78;22.93;101076.94;4436791;32;20122;-67
2021/09/12 10:08:58;;;;;;;3.25;1.52;;;;;;;31.82;22.89;101080.28;4437439;32;20059;-67
2021/09/12 10:11:24;;;;;;;1.67;0.57;;;;;;;31.81;23.08;101072.91;4435493;32;20095;-68
2021/09/12 10:13:52;;;;;;;2.30;0.77;;;;;;;32.15;22.79;101078.38;4434676;32;20082;-67
2021/09/12 10:16:20;;;;;;;4.37;0.93;;;;;;;32.16;22.60;101077.78;4436801;32;20021;-67
2021/09/12 10:18:46;;;;;;;0.65;0.60;;;;;;;32.65;22.27;101083.22;4433980;32;20064;-68
2021/09/12 10:21:21;;;;;;;2.15;0.80;;;;;;;32.87;22.14;101075.78;4435041;32;20067;-67
2021/09/12 10:23:56;;;;;;;0.88;0.50;;;;;;;33.58;21.15;101083.88;4436122;32;20162;-67
2021/09/12 10:26:40;;;;;;;2.58;0.60;;;;;;;33.63;20.92;101080.75;4432814;32;20046;-67
2021/09/12 10:29:46;;;;;;;3.77;0.90;;;;;;;33.93;20.78;101086.38;4439142;32;20093;-68
2021/09/12 10:32:33;;;;;;;0.73;0.57;;;;;;;34.40;20.39;101079.62;4430039;32;20232;-67
2021/09/12 10:48:40;;;;;;;2.28;0.50;;;;;;;33.27;21.65;101085.38;3980944;32;15031150;-68
2021/09/12 10:54:02;;;;;;;2.50;0.82;;;;;;;32.42;22.89;101083.22;3993219;31;15014438;-68
2021/09/12 10:56:31;;;;;;;1.98;0.70;;;;;;;32.42;22.89;101083.22;4439366;32;20064;-67
2021/09/12 10:59:01;;;;;;;3.83;1.23;;;;;;;31.88;23.47;101089.62;4452882;32;20331;-68
2021/09/12 11:04:05;;;;;;;3.20;0.70;;;;;;;31.25;24.09;101081.00;3996898;31;15016587;-68
2021/09/12 11:06:32;;;;;;;2.25;0.60;;;;;;;30.91;24.60;101081.25;4455143;32;20076;-68
2021/09/12 11:09:01;;;;;;;0.90;0.68;;;;;;;30.74;24.93;101084.63;4454361;32;20037;-68
2021/09/12 11:11:28;;;;;;;1.75;0.90;;;;;;;30.41;25.26;101078.97;4455015;32;20077;-68
2021/09/12 11:13:56;;;;;;;2.42;0.70;;;;;;;30.47;25.29;101079.59;4453782;32;20131;-67
2021/09/12 11:16:23;;;;;;;2.42;1.00;;;;;;;30.47;25.44;101077.44;4455854;32;20110;-68
2021/09/12 11:31:54;;;;;;;1.83;0.73;;;;;;;31.00;25.26;101077.03;3997490;31;15016774;-68
2021/09/12 11:34:22;;;;;;;4.43;1.02;;;;;;;31.00;25.26;101077.03;4452246;32;20092;-68
2021/09/12 11:39:28;;;;;;;3.08;0.70;;;;;;;30.89;25.55;101083.94;3954282;32;15726232;-68
2021/09/12 11:41:57;;;;;;;1.90;0.70;;;;;;;30.89;25.55;101083.94;4432084;32;20489;-68
2021/09/12 11:44:41;;;;;;;3.85;0.68;;;;;;;30.09;26.32;101075.56;4431824;32;20157;-68
2021/09/12 11:47:11;;;;;;;2.70;1.20;;;;;;;30.53;25.71;101080.22;4431638;32;20085;-68
2021/09/12 11:49:41;;;;;;;3.00;0.82;;;;;;;30.50;25.73;101078.47;4432146;32;20088;-67
2021/09/12 11:52:08;;;;;;;1.87;0.90;;;;;;;30.56;25.75;101079.84;4435579;32;20385;-67
2021/09/12 11:54:35;;;;;;;2.08;1.10;;;;;;;30.62;25.88;101071.75;4434831;32;20168;-67
2021/09/12 12:02:24;;;;;;;3.53;1.50;;;;;;;31.54;25.25;101077.47;3980475;32;15023186;-68
2021/09/12 12:04:51;;;;;;;1.87;1.00;;;;;;;31.54;25.25;101077.47;4428961;32;20109;-68
2021/09/12 12:07:18;;;;;;;4.70;1.00;;;;;;;31.07;25.39;101079.97;4429729;32;20029;-66
2021/09/12 12:09:47;;;;;;;4.75;1.35;;;;;;;30.94;25.43;101085.13;4431983;32;20497;-67
2021/09/12 12:12:15;;;;;;;3.95;1.20;;;;;;;30.72;26.15;101074.91;4430927;32;20063;-67
2021/09/12 12:17:22;;;;;;;2.00;1.00;;;;;;;30.86;26.15;101088.00;3981151;32;15022707;-68
2021/09/12 12:19:49;;;;;;;2.87;1.30;;;;;;;30.86;26.15;101088.00;4437573;32;20086;-67